Time;durP1;ratioP1;P1;durP2;ratioP2;P2;SDS_P1;SDS_P2;PMS_P1;PMS_P2;Temp;Humidity;BMP_temperature;BMP_pressure;BME280_temperature;BME280_humidity;BME280_pressure;Samples;Min_cycle;Max_cycle;Signal;HPM_P1;HPM_P2
2023/01/14 00:01:19;;;;;;;;;;;;;;;;;;4917180;29;20018;-84
2023/01/14 00:03:45;;;;;;;;;;;;;;;;;;4900270;29;19974;-86
2023/01/14 00:06:12;;;;;;;;;;;;;;;;;;4900193;29;19923;-87
2023/01/14 00:08:37;;;;;;;;;;;;;;;;;;4917133;29;19920;-84
2023/01/14 00:11:04;;;;;;;;;;;;;;;;;;4899960;29;19925;-84
2023/01/14 00:13:32;;;;;;;;;;;;;;;;;;4900168;29;19982;-84
2023/01/14 00:15:58;;;;;;;;;;;;;;;;;;4900255;29;19962;-86
2023/01/14 00:18:24;;;;;;;;;;;;;;;;;;4900327;29;19951;-83
2023/01/14 00:20:56;;;;;;;;;;;;;;;;;;4900252;29;20014;-86
2023/01/14 00:23:21;;;;;;;;;;;;;;;;;;4917253;29;19919;-83
2023/01/14 00:25:47;;;;;;;;;;;;;;;;;;4917425;29;19921;-83
2023/01/14 00:28:12;;;;;;;;;;;;;;;;;;4901589;29;20360;-84
2023/01/14 00:30:37;;;;;;;;;;;;;;;;;;4903469;29;19919;-83
2023/01/14 00:33:03;;;;;;;;;;;;;;;;;;4903285;29;19923;-85
2023/01/14 00:35:28;;;;;;;;;;;;;;;;;;4903429;29;20375;-84
2023/01/14 00:37:55;;;;;;;;;;;;;;;;;;4904158;29;19927;-87
2023/01/14 00:40:21;;;;;;;;;;;;;;;;;;4903432;29;20397;-85
2023/01/14 00:42:47;;;;;;;;;;;;;;;;;;4903265;29;19926;-86
2023/01/14 00:45:12;;;;;;;;;;;;;;;;;;4903342;29;19920;-88
2023/01/14 00:47:38;;;;;;;;;;;;;;;;;;4903205;29;19923;-85
2023/01/14 00:50:04;;;;;;;;;;;;;;;;;;4903109;29;19926;-84
2023/01/14 00:52:29;;;;;;;;;;;;;;;;;;4920046;29;20002;-84
2023/01/14 00:54:54;;;;;;;;;;;;;;;;;;4920024;29;20386;-84
2023/01/14 00:57:20;;;;;;;;;;;;;;;;;;4919931;29;20398;-83
2023/01/14 00:59:45;;;;;;;;;;;;;;;;;;4919843;29;19962;-85
2023/01/14 01:02:10;;;;;;;;;;;;;;;;;;4920145;29;20384;-84
2023/01/14 01:04:36;;;;;;;;;;;;;;;;;;4902903;29;19927;-83
2023/01/14 01:07:01;;;;;;;;;;;;;;;;;;4902870;29;20287;-83
2023/01/14 01:09:27;;;;;;;;;;;;;;;;;;4903218;29;19919;-84
2023/01/14 01:11:54;;;;;;;;;;;;;;;;;;4919793;29;20324;-83
2023/01/14 01:14:20;;;;;;;;;;;;;;;;;;4902780;29;19958;-86
2023/01/14 01:16:46;;;;;;;;;;;;;;;;;;4919847;29;20411;-85
2023/01/14 01:19:11;;;;;;;;;;;;;;;;;;4902912;29;19920;-86
2023/01/14 01:21:37;;;;;;;;;;;;;;;;;;4920029;29;19978;-87
2023/01/14 01:24:02;;;;;;;;;;;;;;;;;;4920646;29;20336;-86
2023/01/14 01:26:27;;;;;;;;;;;;;;;;;;4902769;29;19919;-83
2023/01/14 01:28:54;;;;;;;;;;;;;;;;;;4919642;29;20361;-84
2023/01/14 01:31:21;;;;;;;;;;;;;;;;;;4902545;29;19919;-84
2023/01/14 01:33:46;;;;;;;;;;;;;;;;;;4902349;29;19986;-84
2023/01/14 01:36:16;;;;;;;;;;;;;;;;;;4915526;29;19950;-85
2023/01/14 01:38:42;;;;;;;;;;;;;;;;;;4921116;29;19915;-85
2023/01/14 01:41:08;;;;;;;;;;;;;;;;;;4929752;29;19983;-84
2023/01/14 01:43:34;;;;;;;;;;;;;;;;;;4912548;29;19942;-87
2023/01/14 01:46:00;;;;;;;;;;;;;;;;;;4903027;29;20391;-88
2023/01/14 01:48:33;;;;;;;;;;;;;;;;;;4902496;29;19926;-86
2023/01/14 01:51:04;;;;;;;;;;;;;;;;;;4902347;29;19923;-86
2023/01/14 01:53:30;;;;;;;;;;;;;;;;;;4919253;29;19958;-87
2023/01/14 01:55:57;;;;;;;;;;;;;;;;;;4919232;29;19947;-85
2023/01/14 01:58:22;;;;;;;;;;;;;;;;;;4902165;29;19989;-85
2023/01/14 02:00:48;;;;;;;;;;;;;;;;;;4919125;29;20013;-86
2023/01/14 02:03:17;;;;;;;;;;;;;;;;;;4902111;29;20409;-86
2023/01/14 02:05:43;;;;;;;;;;;;;;;;;;4902080;29;19919;-87
2023/01/14 02:08:09;;;;;;;;;;;;;;;;;;4902504;29;19929;-86
2023/01/14 02:10:42;;;;;;;;;;;;;;;;;;4918879;29;19919;-85
2023/01/14 02:13:30;;;;;;;;;;;;;;;;;;4901842;29;20379;-85
2023/01/14 02:16:15;;;;;;;;;;;;;;;;;;4919071;29;19925;-86
2023/01/14 02:18:56;;;;;;;;;;;;;;;;;;4898243;29;20023;-87
2023/01/14 02:21:23;;;;;;;;;;;;;;;;;;4919259;29;19955;-86
2023/01/14 02:23:51;;;;;;;;;;;;;;;;;;4901924;29;19930;-84
2023/01/14 02:26:31;;;;;;;;;;;;;;;;;;4901914;29;19966;-86
2023/01/14 02:29:15;;;;;;;;;;;;;;;;;;4902056;29;19919;-86
2023/01/14 02:31:46;;;;;;;;;;;;;;;;;;4918695;29;19923;-88
2023/01/14 02:34:18;;;;;;;;;;;;;;;;;;4918327;29;19970;-85
2023/01/14 02:36:52;;;;;;;;;;;;;;;;;;4901249;29;19919;-84
2023/01/14 02:39:27;;;;;;;;;;;;;;;;;;4918258;29;19927;-86
2023/01/14 02:44:59;;;;;;;;;;;;;;;;;;4918914;29;20346;-86
2023/01/14 02:47:26;;;;;;;;;;;;;;;;;;4918126;29;20370;-85
2023/01/14 02:49:53;;;;;;;;;;;;;;;;;;4918025;29;19919;-86
2023/01/14 02:52:19;;;;;;;;;;;;;;;;;;4900771;29;19950;-85
2023/01/14 02:54:54;;;;;;;;;;;;;;;;;;4918190;29;20348;-86
2023/01/14 02:57:39;;;;;;;;;;;;;;;;;;4918263;29;19925;-86
2023/01/14 03:00:05;;;;;;;;;;;;;;;;;;4918369;29;19919;-85
2023/01/14 03:02:35;;;;;;;;;;;;;;;;;;4917879;29;19919;-85
2023/01/14 03:05:12;;;;;;;;;;;;;;;;;;4918126;29;19915;-85
2023/01/14 03:07:54;;;;;;;;;;;;;;;;;;4917923;29;20001;-84
2023/01/14 03:10:25;;;;;;;;;;;;;;;;;;4900855;29;19921;-85
2023/01/14 03:12:56;;;;;;;;;;;;;;;;;;4918643;29;19923;-83
2023/01/14 03:15:29;;;;;;;;;;;;;;;;;;4900819;29;19923;-85
2023/01/14 03:18:24;;;;;;;;;;;;;;;;;;4900771;29;19919;-86
2023/01/14 03:20:55;;;;;;;;;;;;;;;;;;4878612;29;19919;-83
2023/01/14 03:23:23;;;;;;;;;;;;;;;;;;4878127;29;20010;-86
2023/01/14 03:25:50;;;;;;;;;;;;;;;;;;4863075;29;20357;-85
2023/01/14 03:28:18;;;;;;;;;;;;;;;;;;4878328;29;19942;-84
2023/01/14 03:30:46;;;;;;;;;;;;;;;;;;4862670;29;19956;-84
2023/01/14 03:33:16;;;;;;;;;;;;;;;;;;4877816;29;20570;-83
2023/01/14 03:35:42;;;;;;;;;;;;;;;;;;4878301;29;19920;-85
2023/01/14 03:38:34;;;;;;;;;;;;;;;;;;4878014;29;19920;-85
2023/01/14 03:41:00;;;;;;;;;;;;;;;;;;4861735;29;20292;-83
2023/01/14 03:43:41;;;;;;;;;;;;;;;;;;4878068;29;19931;-85
2023/01/14 03:46:06;;;;;;;;;;;;;;;;;;4877828;29;19959;-84
2023/01/14 03:48:32;;;;;;;;;;;;;;;;;;4877908;29;19920;-85
2023/01/14 03:51:01;;;;;;;;;;;;;;;;;;4877822;29;19915;-85
2023/01/14 03:53:45;;;;;;;;;;;;;;;;;;4877877;29;19930;-86
2023/01/14 03:56:29;;;;;;;;;;;;;;;;;;4879260;29;19944;-85
2023/01/14 03:59:03;;;;;;;;;;;;;;;;;;4898624;29;19919;-87
2023/01/14 04:01:32;;;;;;;;;;;;;;;;;;4882052;29;20381;-86
2023/01/14 04:03:58;;;;;;;;;;;;;;;;;;4901068;29;19920;-86
2023/01/14 04:06:23;;;;;;;;;;;;;;;;;;4902138;29;19995;-87
2023/01/14 04:08:49;;;;;;;;;;;;;;;;;;4902109;29;20443;-87
2023/01/14 04:11:14;;;;;;;;;;;;;;;;;;4885211;29;19936;-86
2023/01/14 04:16:23;;;;;;;;;;;;;;;;;;4902285;29;20374;-86
2023/01/14 04:18:49;;;;;;;;;;;;;;;;;;4885123;29;20014;-86
2023/01/14 04:21:14;;;;;;;;;;;;;;;;;;4884839;29;19921;-83
2023/01/14 04:23:39;;;;;;;;;;;;;;;;;;4884921;29;19970;-86
2023/01/14 04:26:05;;;;;;;;;;;;;;;;;;4884999;29;19919;-87
2023/01/14 04:28:30;;;;;;;;;;;;;;;;;;4884956;29;19923;-87
2023/01/14 04:30:56;;;;;;;;;;;;;;;;;;4901677;29;19920;-87
2023/01/14 04:33:21;;;;;;;;;;;;;;;;;;4901572;29;19923;-87
2023/01/14 04:35:48;;;;;;;;;;;;;;;;;;4901712;29;19919;-85
2023/01/14 04:38:14;;;;;;;;;;;;;;;;;;4901680;29;19920;-85
2023/01/14 04:40:39;;;;;;;;;;;;;;;;;;4884556;29;19930;-87
2023/01/14 04:43:04;;;;;;;;;;;;;;;;;;4884698;29;19926;-87
2023/01/14 04:45:30;;;;;;;;;;;;;;;;;;4901639;29;19920;-87
2023/01/14 04:47:55;;;;;;;;;;;;;;;;;;4901403;29;19916;-87
2023/01/14 04:50:41;;;;;;;;;;;;;;;;;;4901566;29;20280;-83
2023/01/14 04:53:23;;;;;;;;;;;;;;;;;;4901540;29;19923;-88
2023/01/14 04:55:51;;;;;;;;;;;;;;;;;;4884379;29;19926;-85
2023/01/14 04:58:17;;;;;;;;;;;;;;;;;;4884396;29;19915;-88
2023/01/14 05:00:42;;;;;;;;;;;;;;;;;;4884348;29;19919;-84
2023/01/14 05:03:09;;;;;;;;;;;;;;;;;;4884052;29;19920;-83
2023/01/14 05:05:35;;;;;;;;;;;;;;;;;;4884342;29;19966;-84
2023/01/14 05:08:00;;;;;;;;;;;;;;;;;;4884232;29;19948;-86
2023/01/14 05:10:26;;;;;;;;;;;;;;;;;;4900880;29;19923;-86
2023/01/14 05:12:58;;;;;;;;;;;;;;;;;;4900985;29;19987;-83
2023/01/14 05:15:23;;;;;;;;;;;;;;;;;;4884046;29;20360;-84
2023/01/14 05:17:49;;;;;;;;;;;;;;;;;;4883989;29;20014;-83
2023/01/14 05:20:14;;;;;;;;;;;;;;;;;;4884007;29;19923;-84
2023/01/14 05:22:39;;;;;;;;;;;;;;;;;;4901225;29;19919;-83
2023/01/14 05:25:05;;;;;;;;;;;;;;;;;;4884038;29;19924;-84
2023/01/14 05:27:32;;;;;;;;;;;;;;;;;;4911358;29;19946;-83
2023/01/14 05:29:57;;;;;;;;;;;;;;;;;;4892405;29;20056;-85
2023/01/14 05:32:23;;;;;;;;;;;;;;;;;;4901485;29;19972;-85
2023/01/14 05:34:48;;;;;;;;;;;;;;;;;;4919487;29;19983;-86
2023/01/14 05:37:14;;;;;;;;;;;;;;;;;;4902729;29;19920;-87
2023/01/14 05:39:39;;;;;;;;;;;;;;;;;;4920061;29;19919;-84
2023/01/14 05:47:33;;;;;;;;;;;;;;;;;;4919662;29;20055;-85
2023/01/14 05:49:58;;;;;;;;;;;;;;;;;;4919229;29;20348;-86
2023/01/14 05:52:24;;;;;;;;;;;;;;;;;;4902358;29;20008;-84
2023/01/14 05:54:49;;;;;;;;;;;;;;;;;;4919879;29;19915;-86
2023/01/14 05:57:14;;;;;;;;;;;;;;;;;;4919158;29;19975;-84
2023/01/14 05:59:41;;;;;;;;;;;;;;;;;;4901854;29;19919;-86
2023/01/14 06:07:35;;;;;;;;;;;;;;;;;;4919185;29;19926;-84
2023/01/14 06:10:00;;;;;;;;;;;;;;;;;;4918718;29;19919;-85
2023/01/14 06:15:09;;;;;;;;;;;;;;;;;;4919021;29;20423;-85
2023/01/14 06:17:44;;;;;;;;;;;;;;;;;;4918660;29;19923;-84
2023/01/14 06:20:10;;;;;;;;;;;;;;;;;;4918862;29;19919;-83
2023/01/14 06:22:35;;;;;;;;;;;;;;;;;;4901740;29;20470;-84
2023/01/14 06:25:01;;;;;;;;;;;;;;;;;;4918364;29;19919;-84
2023/01/14 06:27:26;;;;;;;;;;;;;;;;;;4901094;29;19920;-84
2023/01/14 06:29:52;;;;;;;;;;;;;;;;;;4918332;29;20042;-84
2023/01/14 06:32:18;;;;;;;;;;;;;;;;;;4918174;29;19920;-82
2023/01/14 06:34:43;;;;;;;;;;;;;;;;;;4901176;29;19966;-85
2023/01/14 06:37:09;;;;;;;;;;;;;;;;;;4918168;29;19970;-83
2023/01/14 06:39:34;;;;;;;;;;;;;;;;;;4918151;29;19991;-84
2023/01/14 06:41:59;;;;;;;;;;;;;;;;;;4918001;29;19919;-83
2023/01/14 06:44:25;;;;;;;;;;;;;;;;;;4917972;29;19926;-84
2023/01/14 06:46:50;;;;;;;;;;;;;;;;;;4918012;29;19934;-83
2023/01/14 06:49:16;;;;;;;;;;;;;;;;;;4918386;29;19926;-83
2023/01/14 06:51:41;;;;;;;;;;;;;;;;;;4918104;29;20006;-83
2023/01/14 06:54:07;;;;;;;;;;;;;;;;;;4917915;29;19919;-84
2023/01/14 06:56:33;;;;;;;;;;;;;;;;;;4901030;29;20364;-83
2023/01/14 06:58:58;;;;;;;;;;;;;;;;;;4917773;29;20609;-83
2023/01/14 07:01:23;;;;;;;;;;;;;;;;;;4917756;29;19919;-84
2023/01/14 07:03:49;;;;;;;;;;;;;;;;;;4917815;29;19923;-83
2023/01/14 07:06:15;;;;;;;;;;;;;;;;;;4918128;29;19919;-83
2023/01/14 07:08:40;;;;;;;;;;;;;;;;;;4900669;29;19959;-83
2023/01/14 07:11:05;;;;;;;;;;;;;;;;;;4900832;29;20336;-84
2023/01/14 07:13:32;;;;;;;;;;;;;;;;;;4917699;29;19919;-83
2023/01/14 07:15:57;;;;;;;;;;;;;;;;;;4900884;29;19919;-84
2023/01/14 07:18:22;;;;;;;;;;;;;;;;;;4900677;29;19967;-85
2023/01/14 07:20:48;;;;;;;;;;;;;;;;;;4917678;29;19926;-84
2023/01/14 07:23:13;;;;;;;;;;;;;;;;;;4917861;29;19939;-87
2023/01/14 07:25:39;;;;;;;;;;;;;;;;;;4917617;29;20336;-83
2023/01/14 07:28:04;;;;;;;;;;;;;;;;;;4917602;29;20371;-87
2023/01/14 07:30:30;;;;;;;;;;;;;;;;;;4917667;29;19919;-85
2023/01/14 07:32:59;;;;;;;;;;;;;;;;;;4900448;29;19951;-86
2023/01/14 07:35:25;;;;;;;;;;;;;;;;;;4917621;29;20010;-87
2023/01/14 07:37:55;;;;;;;;;;;;;;;;;;4918799;29;19927;-86
2023/01/14 07:40:20;;;;;;;;;;;;;;;;;;4921347;29;19927;-87
2023/01/14 07:42:47;;;;;;;;;;;;;;;;;;4921317;29;19919;-86
2023/01/14 07:45:12;;;;;;;;;;;;;;;;;;4921315;29;20333;-83
2023/01/14 07:47:38;;;;;;;;;;;;;;;;;;4904337;29;19975;-84
2023/01/14 07:50:03;;;;;;;;;;;;;;;;;;4921236;29;20390;-83
2023/01/14 07:52:29;;;;;;;;;;;;;;;;;;4921121;29;19923;-83
2023/01/14 07:54:54;;;;;;;;;;;;;;;;;;4920965;29;19920;-83
2023/01/14 07:57:20;;;;;;;;;;;;;;;;;;4904156;29;19958;-83
2023/01/14 07:59:45;;;;;;;;;;;;;;;;;;4921136;29;19919;-84
2023/01/14 08:02:11;;;;;;;;;;;;;;;;;;4921269;29;19927;-83
2023/01/14 08:04:37;;;;;;;;;;;;;;;;;;4920945;29;19934;-84
2023/01/14 08:07:06;;;;;;;;;;;;;;;;;;4920920;29;19919;-83
2023/01/14 08:09:32;;;;;;;;;;;;;;;;;;4920888;29;20002;-83
2023/01/14 08:11:58;;;;;;;;;;;;;;;;;;4920812;29;19950;-83
2023/01/14 08:14:23;;;;;;;;;;;;;;;;;;4920745;29;19961;-83
2023/01/14 08:16:48;;;;;;;;;;;;;;;;;;4903834;29;20375;-83
2023/01/14 08:19:16;;;;;;;;;;;;;;;;;;4903644;29;20376;-82
2023/01/14 08:21:41;;;;;;;;;;;;;;;;;;4920919;29;19967;-81
2023/01/14 08:24:07;;;;;;;;;;;;;;;;;;4920477;29;19919;-83
2023/01/14 08:26:32;;;;;;;;;;;;;;;;;;4920827;29;19919;-83
2023/01/14 08:28:58;;;;;;;;;;;;;;;;;;4920710;29;19942;-84
2023/01/14 08:31:23;;;;;;;;;;;;;;;;;;4920739;29;20375;-84
2023/01/14 08:33:49;;;;;;;;;;;;;;;;;;4903246;29;19927;-85
2023/01/14 08:36:15;;;;;;;;;;;;;;;;;;4920670;29;20010;-84
2023/01/14 08:38:44;;;;;;;;;;;;;;;;;;4920181;29;20280;-85
2023/01/14 08:41:11;;;;;;;;;;;;;;;;;;4920464;29;19963;-84
2023/01/14 08:43:37;;;;;;;;;;;;;;;;;;4920218;29;19926;-84
2023/01/14 08:46:03;;;;;;;;;;;;;;;;;;4920180;29;20292;-84
2023/01/14 08:48:29;;;;;;;;;;;;;;;;;;4919785;29;20006;-84
2023/01/14 08:50:58;;;;;;;;;;;;;;;;;;4919988;29;20022;-85
2023/01/14 08:53:23;;;;;;;;;;;;;;;;;;4903142;29;19926;-85
2023/01/14 08:55:48;;;;;;;;;;;;;;;;;;4920208;29;19923;-83
2023/01/14 08:58:14;;;;;;;;;;;;;;;;;;4919982;29;19967;-84
2023/01/14 09:00:39;;;;;;;;;;;;;;;;;;4920410;29;19948;-85
2023/01/14 09:03:04;;;;;;;;;;;;;;;;;;4920252;29;19989;-84
2023/01/14 09:05:31;;;;;;;;;;;;;;;;;;4919966;29;20442;-83
2023/01/14 09:18:57;;;;;;;;;;;;;;;;;;4920674;29;19926;-84
2023/01/14 09:21:24;;;;;;;;;;;;;;;;;;5100717;23;20313;-86
2023/01/14 09:23:49;;;;;;;;;;;;;;;;;;4902419;29;19968;-84
2023/01/14 09:26:15;;;;;;;;;;;;;;;;;;4919597;29;19922;-84
2023/01/14 09:28:40;;;;;;;;;;;;;;;;;;4902463;29;19919;-83
2023/01/14 09:31:05;;;;;;;;;;;;;;;;;;4919635;29;20014;-84
2023/01/14 09:33:31;;;;;;;;;;;;;;;;;;4919312;29;19919;-84
2023/01/14 09:35:59;;;;;;;;;;;;;;;;;;4919721;29;19966;-83
2023/01/14 09:38:24;;;;;;;;;;;;;;;;;;4919328;29;20279;-83
2023/01/14 09:40:50;;;;;;;;;;;;;;;;;;4919534;29;19935;-84
2023/01/14 09:43:17;;;;;;;;;;;;;;;;;;4919204;29;19926;-84
2023/01/14 09:45:42;;;;;;;;;;;;;;;;;;4919223;29;20408;-85
2023/01/14 09:48:19;;;;;;;;;;;;;;;;;;4919162;29;19915;-85
2023/01/14 09:50:47;;;;;;;;;;;;;;;;;;4919054;29;19919;-89
2023/01/14 09:53:33;;;;;;;;;;;;;;;;;;4902077;29;20013;-86
2023/01/14 09:56:01;;;;;;;;;;;;;;;;;;4919104;29;20315;-87
2023/01/14 09:58:36;;;;;;;;;;;;;;;;;;4919288;29;20396;-85
2023/01/14 10:01:16;;;;;;;;;;;;;;;;;;4918211;29;19919;-85
2023/01/14 10:03:51;;;;;;;;;;;;;;;;;;4918937;29;19927;-86
2023/01/14 10:06:17;;;;;;;;;;;;;;;;;;4919114;29;19997;-85
2023/01/14 10:08:45;;;;;;;;;;;;;;;;;;4918800;29;19919;-86
2023/01/14 10:11:11;;;;;;;;;;;;;;;;;;4918838;29;20272;-85
2023/01/14 10:13:44;;;;;;;;;;;;;;;;;;4901694;29;20320;-87
2023/01/14 10:16:17;;;;;;;;;;;;;;;;;;4919336;29;20013;-87
2023/01/14 10:18:53;;;;;;;;;;;;;;;;;;4918746;29;20360;-85
2023/01/14 10:21:38;;;;;;;;;;;;;;;;;;4918743;29;19931;-87
2023/01/14 10:24:03;;;;;;;;;;;;;;;;;;4919197;29;19990;-89
2023/01/14 10:26:32;;;;;;;;;;;;;;;;;;4918618;29;20371;-87
2023/01/14 10:29:28;;;;;;;;;;;;;;;;;;4901519;29;19927;-88
2023/01/14 10:31:55;;;;;;;;;;;;;;;;;;4916822;29;19919;-88
2023/01/14 10:34:29;;;;;;;;;;;;;;;;;;4918370;29;19919;-86
2023/01/14 10:36:54;;;;;;;;;;;;;;;;;;4918054;29;19942;-85
2023/01/14 10:39:20;;;;;;;;;;;;;;;;;;4901217;29;20375;-86
2023/01/14 10:41:48;;;;;;;;;;;;;;;;;;4901249;29;19919;-86
2023/01/14 10:44:23;;;;;;;;;;;;;;;;;;4918144;29;19919;-87
2023/01/14 10:46:49;;;;;;;;;;;;;;;;;;4918090;29;19958;-86
2023/01/14 10:49:14;;;;;;;;;;;;;;;;;;4918117;29;19926;-87
2023/01/14 10:51:47;;;;;;;;;;;;;;;;;;4918144;29;19926;-86
2023/01/14 10:54:14;;;;;;;;;;;;;;;;;;4918068;29;19923;-87
2023/01/14 10:56:41;;;;;;;;;;;;;;;;;;4918066;29;19919;-85
2023/01/14 10:59:19;;;;;;;;;;;;;;;;;;4918504;29;19926;-86
2023/01/14 11:01:45;;;;;;;;;;;;;;;;;;4918012;29;19965;-85
2023/01/14 11:04:12;;;;;;;;;;;;;;;;;;4900970;29;20274;-84
2023/01/14 11:06:38;;;;;;;;;;;;;;;;;;4917875;29;19926;-84
2023/01/14 11:09:03;;;;;;;;;;;;;;;;;;4918478;29;19919;-86
2023/01/14 11:11:37;;;;;;;;;;;;;;;;;;4918040;29;19919;-84
2023/01/14 11:14:17;;;;;;;;;;;;;;;;;;4917786;29;19923;-84
2023/01/14 11:16:42;;;;;;;;;;;;;;;;;;4917761;29;20298;-85
2023/01/14 11:19:21;;;;;;;;;;;;;;;;;;4918112;29;19919;-84
2023/01/14 11:21:58;;;;;;;;;;;;;;;;;;4917549;29;19923;-84
2023/01/14 11:24:36;;;;;;;;;;;;;;;;;;4900736;29;19926;-86
2023/01/14 11:27:22;;;;;;;;;;;;;;;;;;4900722;29;19915;-85
2023/01/14 11:29:51;;;;;;;;;;;;;;;;;;4901033;29;20018;-85
2023/01/14 11:32:24;;;;;;;;;;;;;;;;;;4908762;29;19919;-85
2023/01/14 11:34:54;;;;;;;;;;;;;;;;;;4924604;29;19986;-87
2023/01/14 11:37:20;;;;;;;;;;;;;;;;;;4932078;29;19919;-86
2023/01/14 11:39:47;;;;;;;;;;;;;;;;;;4926735;29;19919;-86
2023/01/14 11:42:33;;;;;;;;;;;;;;;;;;4936099;29;20354;-86
2023/01/14 11:45:14;;;;;;;;;;;;;;;;;;4935106;29;19954;-86
2023/01/14 11:47:45;;;;;;;;;;;;;;;;;;4919507;29;20366;-85
2023/01/14 11:50:14;;;;;;;;;;;;;;;;;;4936723;29;19915;-85
2023/01/14 11:52:39;;;;;;;;;;;;;;;;;;4919381;29;20393;-84
2023/01/14 11:55:12;;;;;;;;;;;;;;;;;;4936754;29;19957;-84
2023/01/14 11:57:37;;;;;;;;;;;;;;;;;;4936738;29;19969;-85
2023/01/14 12:00:03;;;;;;;;;;;;;;;;;;4936530;29;20382;-85
2023/01/14 12:02:35;;;;;;;;;;;;;;;;;;4936600;29;20025;-85
2023/01/14 12:05:14;;;;;;;;;;;;;;;;;;4936446;29;19919;-84
2023/01/14 12:07:44;;;;;;;;;;;;;;;;;;4936301;29;19915;-86
2023/01/14 12:10:12;;;;;;;;;;;;;;;;;;4936343;29;19919;-85
2023/01/14 12:18:25;;;;;;;;;;;;;;;;;;4936590;29;19970;-85
2023/01/14 12:20:52;;;;;;;;;;;;;;;;;;4936288;29;19973;-84
2023/01/14 12:23:19;;;;;;;;;;;;;;;;;;4919073;29;19922;-84
2023/01/14 12:25:47;;;;;;;;;;;;;;;;;;4939922;29;19919;-85
2023/01/14 12:28:17;;;;;;;;;;;;;;;;;;4939628;29;20035;-84
2023/01/14 12:31:01;;;;;;;;;;;;;;;;;;4939576;29;19923;-86
2023/01/14 12:33:36;;;;;;;;;;;;;;;;;;4939764;29;19918;-85
2023/01/14 12:36:19;;;;;;;;;;;;;;;;;;4939882;29;19926;-84
2023/01/14 12:47:05;;;;;;;;;;;;;;;;;;4939921;29;20023;-84
2023/01/14 12:49:31;;;;;;;;;;;;;;;;;;4939332;29;19954;-85
2023/01/14 12:51:57;;;;;;;;;;;;;;;;;;4939279;29;19923;-85
2023/01/14 12:54:29;;;;;;;;;;;;;;;;;;4939090;29;20345;-87
2023/01/14 12:56:56;;;;;;;;;;;;;;;;;;4939364;29;19969;-84
2023/01/14 12:59:24;;;;;;;;;;;;;;;;;;4939056;29;20014;-85
2023/01/14 13:01:52;;;;;;;;;;;;;;;;;;4939064;29;19923;-85
2023/01/14 13:04:19;;;;;;;;;;;;;;;;;;4939288;29;19919;-84
2023/01/14 13:06:45;;;;;;;;;;;;;;;;;;4938986;29;20270;-85
2023/01/14 13:09:22;;;;;;;;;;;;;;;;;;4939253;29;19919;-85
2023/01/14 13:11:50;;;;;;;;;;;;;;;;;;4939194;29;20005;-84
2023/01/14 13:14:19;;;;;;;;;;;;;;;;;;4922452;29;20013;-85
2023/01/14 13:16:44;;;;;;;;;;;;;;;;;;4938635;29;19918;-85
2023/01/14 13:19:25;;;;;;;;;;;;;;;;;;4938785;29;19925;-86
2023/01/14 13:21:54;;;;;;;;;;;;;;;;;;4938578;29;19950;-84
2023/01/14 13:24:28;;;;;;;;;;;;;;;;;;4939179;29;19919;-85
2023/01/14 13:26:55;;;;;;;;;;;;;;;;;;4939093;29;19923;-85
2023/01/14 13:29:22;;;;;;;;;;;;;;;;;;4938573;29;19926;-86
2023/01/14 13:31:48;;;;;;;;;;;;;;;;;;4938412;29;20366;-85
2023/01/14 13:34:22;;;;;;;;;;;;;;;;;;4938352;29;19998;-86
2023/01/14 13:37:08;;;;;;;;;;;;;;;;;;4937535;29;19919;-84
2023/01/14 13:39:33;;;;;;;;;;;;;;;;;;4938166;29;19926;-84
2023/01/14 13:42:00;;;;;;;;;;;;;;;;;;4938218;29;19918;-85
2023/01/14 13:44:30;;;;;;;;;;;;;;;;;;4921040;29;19926;-85
2023/01/14 13:46:57;;;;;;;;;;;;;;;;;;4938209;29;19919;-84
2023/01/14 13:49:40;;;;;;;;;;;;;;;;;;4938556;29;20018;-86
2023/01/14 13:52:08;;;;;;;;;;;;;;;;;;4938027;29;19969;-84
2023/01/14 13:54:35;;;;;;;;;;;;;;;;;;4938299;29;20313;-84
2023/01/14 13:57:19;;;;;;;;;;;;;;;;;;4938280;29;19957;-84
2023/01/14 13:59:49;;;;;;;;;;;;;;;;;;4937897;29;20330;-83
2023/01/14 14:02:34;;;;;;;;;;;;;;;;;;4938254;29;20056;-83
2023/01/14 14:05:00;;;;;;;;;;;;;;;;;;4937636;29;19941;-85
2023/01/14 14:07:44;;;;;;;;;;;;;;;;;;4937280;29;19918;-84
2023/01/14 14:10:11;;;;;;;;;;;;;;;;;;4937301;29;20403;-85
2023/01/14 14:15:23;;;;;;;;;;;;;;;;;;4937612;29;19929;-84
2023/01/14 14:17:56;;;;;;;;;;;;;;;;;;4920285;29;19941;-83
2023/01/14 14:20:23;;;;;;;;;;;;;;;;;;4937045;29;19934;-86
2023/01/14 14:23:00;;;;;;;;;;;;;;;;;;4936829;29;19975;-84
2023/01/14 14:25:35;;;;;;;;;;;;;;;;;;4937005;29;19919;-83
2023/01/14 14:28:01;;;;;;;;;;;;;;;;;;4936822;29;19926;-84
2023/01/14 14:30:28;;;;;;;;;;;;;;;;;;4936853;29;19918;-83
2023/01/14 14:32:54;;;;;;;;;;;;;;;;;;4937034;29;20390;-85
2023/01/14 14:35:21;;;;;;;;;;;;;;;;;;4936767;29;19926;-83
2023/01/14 14:37:54;;;;;;;;;;;;;;;;;;4936720;29;19925;-84
2023/01/14 14:40:24;;;;;;;;;;;;;;;;;;4936672;29;19925;-84
2023/01/14 14:42:49;;;;;;;;;;;;;;;;;;4937085;29;19982;-85
2023/01/14 14:45:49;;;;;;;;;;;;;;;;;;4936794;29;20367;-83
2023/01/14 14:48:18;;;;;;;;;;;;;;;;;;4905358;29;19926;-85
2023/01/14 14:50:44;;;;;;;;;;;;;;;;;;4936620;29;19947;-84
2023/01/14 14:53:24;;;;;;;;;;;;;;;;;;4936590;29;19919;-84
2023/01/14 14:55:51;;;;;;;;;;;;;;;;;;4936750;29;19954;-83
2023/01/14 14:58:18;;;;;;;;;;;;;;;;;;4936405;29;20289;-84
2023/01/14 15:00:43;;;;;;;;;;;;;;;;;;4935708;29;19919;-84
2023/01/14 15:03:14;;;;;;;;;;;;;;;;;;4936831;29;20271;-84
2023/01/14 15:05:42;;;;;;;;;;;;;;;;;;4919859;29;19926;-83
2023/01/14 15:08:10;;;;;;;;;;;;;;;;;;4936786;29;20018;-84
2023/01/14 15:10:36;;;;;;;;;;;;;;;;;;4919817;29;20290;-84
2023/01/14 15:13:01;;;;;;;;;;;;;;;;;;4936802;29;19919;-84
2023/01/14 15:15:28;;;;;;;;;;;;;;;;;;4936964;29;19923;-84
2023/01/14 15:17:58;;;;;;;;;;;;;;;;;;4936923;29;19922;-83
2023/01/14 15:20:23;;;;;;;;;;;;;;;;;;4919108;29;19969;-84
2023/01/14 15:22:49;;;;;;;;;;;;;;;;;;4936167;29;19926;-83
2023/01/14 15:25:16;;;;;;;;;;;;;;;;;;4936692;29;19919;-84
2023/01/14 15:27:43;;;;;;;;;;;;;;;;;;4936605;29;19919;-84
2023/01/14 15:30:21;;;;;;;;;;;;;;;;;;4936639;29;19918;-83
2023/01/14 15:32:47;;;;;;;;;;;;;;;;;;4936615;29;19919;-84
2023/01/14 15:35:21;;;;;;;;;;;;;;;;;;4936529;29;19970;-84
2023/01/14 15:37:48;;;;;;;;;;;;;;;;;;4936571;29;19919;-84
2023/01/14 15:40:14;;;;;;;;;;;;;;;;;;4936513;29;19958;-84
2023/01/14 15:42:40;;;;;;;;;;;;;;;;;;4936444;29;20390;-84
2023/01/14 15:45:06;;;;;;;;;;;;;;;;;;4936446;29;19926;-86
2023/01/14 15:47:31;;;;;;;;;;;;;;;;;;4936485;29;19919;-85
2023/01/14 15:49:57;;;;;;;;;;;;;;;;;;4936474;29;19918;-85
2023/01/14 15:52:33;;;;;;;;;;;;;;;;;;4936450;29;20405;-85
2023/01/14 15:55:17;;;;;;;;;;;;;;;;;;4919321;29;19962;-84
2023/01/14 15:57:43;;;;;;;;;;;;;;;;;;4936425;29;19930;-87
2023/01/14 16:00:08;;;;;;;;;;;;;;;;;;4939372;29;19919;-85
2023/01/14 16:02:34;;;;;;;;;;;;;;;;;;4924623;29;19982;-86
2023/01/14 16:05:19;;;;;;;;;;;;;;;;;;4924983;29;20362;-85
2023/01/14 16:07:44;;;;;;;;;;;;;;;;;;4928464;29;19919;-87
2023/01/14 16:10:10;;;;;;;;;;;;;;;;;;4955370;29;19922;-87
2023/01/14 16:12:36;;;;;;;;;;;;;;;;;;4953781;29;19922;-87
2023/01/14 16:15:01;;;;;;;;;;;;;;;;;;4930240;29;19969;-84
2023/01/14 16:17:27;;;;;;;;;;;;;;;;;;4940822;29;19962;-84
2023/01/14 16:19:56;;;;;;;;;;;;;;;;;;4940245;29;20366;-84
2023/01/14 16:22:22;;;;;;;;;;;;;;;;;;4940090;29;19923;-84
2023/01/14 16:24:47;;;;;;;;;;;;;;;;;;4939781;29;20355;-84
2023/01/14 16:27:20;;;;;;;;;;;;;;;;;;4939630;29;20290;-87
2023/01/14 16:29:46;;;;;;;;;;;;;;;;;;4939552;29;19977;-85
2023/01/14 16:32:11;;;;;;;;;;;;;;;;;;4939579;29;20382;-83
2023/01/14 16:34:37;;;;;;;;;;;;;;;;;;4922616;29;20315;-82
2023/01/14 16:37:02;;;;;;;;;;;;;;;;;;4939414;29;20382;-81
2023/01/14 16:39:28;;;;;;;;;;;;;;;;;;4939349;29;19964;-82
2023/01/14 16:41:54;;;;;;;;;;;;;;;;;;4939230;29;20331;-82
2023/01/14 16:44:19;;;;;;;;;;;;;;;;;;4939594;29;19974;-84
2023/01/14 16:46:44;;;;;;;;;;;;;;;;;;4939239;29;20074;-83
2023/01/14 16:49:10;;;;;;;;;;;;;;;;;;4939271;29;19919;-84
2023/01/14 16:51:36;;;;;;;;;;;;;;;;;;4939336;29;19946;-83
2023/01/14 16:54:02;;;;;;;;;;;;;;;;;;4939048;29;19933;-84
2023/01/14 16:56:28;;;;;;;;;;;;;;;;;;4939169;29;19918;-85
2023/01/14 16:58:55;;;;;;;;;;;;;;;;;;4922000;29;19919;-84
2023/01/14 17:01:22;;;;;;;;;;;;;;;;;;4938965;29;20374;-85
2023/01/14 17:03:48;;;;;;;;;;;;;;;;;;4939076;29;19925;-83
2023/01/14 17:06:16;;;;;;;;;;;;;;;;;;4939233;29;19915;-85
2023/01/14 17:08:41;;;;;;;;;;;;;;;;;;4921836;29;19962;-84
2023/01/14 17:13:53;;;;;;;;;;;;;;;;;;4918754;29;20009;-85
2023/01/14 17:16:18;;;;;;;;;;;;;;;;;;4939083;29;19995;-87
2023/01/14 17:18:44;;;;;;;;;;;;;;;;;;4939293;29;20375;-86
2023/01/14 17:21:11;;;;;;;;;;;;;;;;;;4938445;29;19922;-88
2023/01/14 17:23:36;;;;;;;;;;;;;;;;;;4938930;29;19926;-86
2023/01/14 17:26:03;;;;;;;;;;;;;;;;;;4938644;29;19922;-85
2023/01/14 17:28:28;;;;;;;;;;;;;;;;;;4938484;29;20418;-87
2023/01/14 17:30:54;;;;;;;;;;;;;;;;;;4939097;29;19969;-84
2023/01/14 17:33:19;;;;;;;;;;;;;;;;;;4938670;29;20290;-84
2023/01/14 17:35:45;;;;;;;;;;;;;;;;;;4938572;29;19926;-85
2023/01/14 17:38:11;;;;;;;;;;;;;;;;;;4938441;29;20475;-83
2023/01/14 17:40:36;;;;;;;;;;;;;;;;;;4938421;29;19966;-86
2023/01/14 17:43:02;;;;;;;;;;;;;;;;;;4921178;29;20282;-83
2023/01/14 17:45:27;;;;;;;;;;;;;;;;;;4938238;29;20006;-84